sensor_id;sensor_type;location;lat;lon;timestamp;pressure;altitude;pressure_sealevel;temperature;humidity
46456;BME280;64052;47.466;9.094;2023-02-11T00:00:52;97642.66;;;4.46;46.33
46456;BME280;64052;47.466;9.094;2023-02-11T00:05:58;97644.09;;;4.28;46.60
46456;BME280;64052;47.466;9.094;2023-02-11T00:11:00;97632.34;;;4.13;46.92
46456;BME280;64052;47.466;9.094;2023-02-11T00:16:09;97636.34;;;3.96;47.29
46456;BME280;64052;47.466;9.094;2023-02-11T00:21:17;97638.22;;;3.91;47.39
46456;BME280;64052;47.466;9.094;2023-02-11T00:26:22;97640.66;;;3.97;47.49
46456;BME280;64052;47.466;9.094;2023-02-11T00:31:24;97649.56;;;3.60;48.08
46456;BME280;64052;47.466;9.094;2023-02-11T00:36:27;97649.47;;;3.61;48.01
46456;BME280;64052;47.466;9.094;2023-02-11T00:41:29;97655.22;;;3.74;47.68
46456;BME280;64052;47.466;9.094;2023-02-11T00:46:32;97645.94;;;3.64;48.31
46456;BME280;64052;47.466;9.094;2023-02-11T00:51:35;97641.28;;;3.75;48.01
46456;BME280;64052;47.466;9.094;2023-02-11T00:56:37;97638.63;;;3.77;47.50
46456;BME280;64052;47.466;9.094;2023-02-11T01:01:38;97638.66;;;3.75;47.75
46456;BME280;64052;47.466;9.094;2023-02-11T01:06:41;97628.56;;;3.64;47.95
46456;BME280;64052;47.466;9.094;2023-02-11T01:11:43;97621.81;;;3.56;48.32
46456;BME280;64052;47.466;9.094;2023-02-11T01:16:45;97620.13;;;3.55;48.10
46456;BME280;64052;47.466;9.094;2023-02-11T01:21:46;97619.84;;;3.34;48.28
46456;BME280;64052;47.466;9.094;2023-02-11T01:26:48;97601.06;;;3.21;48.36
46456;BME280;64052;47.466;9.094;2023-02-11T01:31:49;97602.63;;;3.27;48.51
46456;BME280;64052;47.466;9.094;2023-02-11T01:36:58;97592.66;;;3.11;48.99
46456;BME280;64052;47.466;9.094;2023-02-11T01:42:02;97582.56;;;3.30;48.19
46456;BME280;64052;47.466;9.094;2023-02-11T01:47:04;97581.31;;;3.44;47.87
46456;BME280;64052;47.466;9.094;2023-02-11T01:52:09;97574.63;;;3.65;47.53
46456;BME280;64052;47.466;9.094;2023-02-11T01:57:14;97567.50;;;3.70;46.78
46456;BME280;64052;47.466;9.094;2023-02-11T02:02:20;97554.75;;;3.61;46.87
46456;BME280;64052;47.466;9.094;2023-02-11T02:07:29;97556.34;;;3.65;46.73
46456;BME280;64052;47.466;9.094;2023-02-11T02:12:32;97548.50;;;3.67;46.54
46456;BME280;64052;47.466;9.094;2023-02-11T02:17:42;97547.75;;;3.61;46.49
46456;BME280;64052;47.466;9.094;2023-02-11T02:22:57;97549.81;;;3.50;47.08
46456;BME280;64052;47.466;9.094;2023-02-11T02:28:31;97546.63;;;3.42;46.78
46456;BME280;64052;47.466;9.094;2023-02-11T02:38:52;97544.13;;;3.37;46.92
46456;BME280;64052;47.466;9.094;2023-02-11T02:43:56;97541.69;;;3.31;46.94
46456;BME280;64052;47.466;9.094;2023-02-11T02:48:58;97528.44;;;3.38;46.91
46456;BME280;64052;47.466;9.094;2023-02-11T02:54:08;97536.00;;;3.18;47.02
46456;BME280;64052;47.466;9.094;2023-02-11T03:09:39;97545.94;;;2.70;48.24
46456;BME280;64052;47.466;9.094;2023-02-11T03:14:41;97542.22;;;2.46;48.60
46456;BME280;64052;47.466;9.094;2023-02-11T03:19:45;97539.56;;;2.13;49.70
46456;BME280;64052;47.466;9.094;2023-02-11T03:24:49;97544.13;;;2.03;49.60
46456;BME280;64052;47.466;9.094;2023-02-11T03:35:03;97530.28;;;2.01;49.85
46456;BME280;64052;47.466;9.094;2023-02-11T03:40:26;97517.97;;;2.09;50.19
46456;BME280;64052;47.466;9.094;2023-02-11T03:45:29;97525.44;;;2.23;49.75
46456;BME280;64052;47.466;9.094;2023-02-11T03:50:32;97519.84;;;2.38;49.89
46456;BME280;64052;47.466;9.094;2023-02-11T03:55:38;97517.50;;;2.28;49.14
46456;BME280;64052;47.466;9.094;2023-02-11T04:00:41;97518.38;;;1.90;50.07
46456;BME280;64052;47.466;9.094;2023-02-11T04:05:43;97516.88;;;2.18;49.43
46456;BME280;64052;47.466;9.094;2023-02-11T04:10:45;97520.28;;;2.20;48.74
46456;BME280;64052;47.466;9.094;2023-02-11T04:15:46;97516.56;;;1.95;49.55
46456;BME280;64052;47.466;9.094;2023-02-11T04:20:49;97519.84;;;2.04;49.65
46456;BME280;64052;47.466;9.094;2023-02-11T04:25:51;97519.19;;;1.94;49.64
46456;BME280;64052;47.466;9.094;2023-02-11T04:30:53;97514.94;;;1.90;49.92
46456;BME280;64052;47.466;9.094;2023-02-11T04:35:54;97510.56;;;1.92;50.11
46456;BME280;64052;47.466;9.094;2023-02-11T04:40:56;97503.22;;;1.72;50.33
46456;BME280;64052;47.466;9.094;2023-02-11T04:45:58;97519.91;;;1.63;50.88
46456;BME280;64052;47.466;9.094;2023-02-11T04:51:00;97507.50;;;1.74;50.83
46456;BME280;64052;47.466;9.094;2023-02-11T04:56:02;97514.41;;;1.75;50.83
46456;BME280;64052;47.466;9.094;2023-02-11T05:01:09;97510.06;;;1.76;50.42
46456;BME280;64052;47.466;9.094;2023-02-11T05:06:10;97517.84;;;1.76;50.97
46456;BME280;64052;47.466;9.094;2023-02-11T05:11:18;97521.97;;;1.86;50.94
46456;BME280;64052;47.466;9.094;2023-02-11T05:16:20;97533.00;;;1.96;50.53
46456;BME280;64052;47.466;9.094;2023-02-11T05:21:21;97540.59;;;2.05;49.90
46456;BME280;64052;47.466;9.094;2023-02-11T05:26:23;97536.66;;;1.89;50.38
46456;BME280;64052;47.466;9.094;2023-02-11T05:31:25;97547.38;;;2.13;49.48
46456;BME280;64052;47.466;9.094;2023-02-11T05:36:26;97549.91;;;2.16;49.32
46456;BME280;64052;47.466;9.094;2023-02-11T05:41:28;97550.00;;;2.11;49.35
46456;BME280;64052;47.466;9.094;2023-02-11T05:46:30;97564.28;;;1.93;49.54
46456;BME280;64052;47.466;9.094;2023-02-11T05:51:31;97568.97;;;1.77;49.87
46456;BME280;64052;47.466;9.094;2023-02-11T05:56:33;97569.97;;;1.71;50.76
46456;BME280;64052;47.466;9.094;2023-02-11T06:01:34;97558.66;;;1.74;50.13
46456;BME280;64052;47.466;9.094;2023-02-11T06:06:36;97561.31;;;1.71;50.62
46456;BME280;64052;47.466;9.094;2023-02-11T06:11:37;97574.16;;;1.78;50.18
46456;BME280;64052;47.466;9.094;2023-02-11T06:16:39;97575.31;;;1.65;50.51
46456;BME280;64052;47.466;9.094;2023-02-11T06:21:41;97581.53;;;1.58;50.59
46456;BME280;64052;47.466;9.094;2023-02-11T06:26:44;97582.38;;;1.58;50.54
46456;BME280;64052;47.466;9.094;2023-02-11T06:31:46;97571.44;;;1.44;50.81
46456;BME280;64052;47.466;9.094;2023-02-11T06:36:48;97589.09;;;1.26;50.86
46456;BME280;64052;47.466;9.094;2023-02-11T06:41:49;97583.78;;;1.32;50.82
46456;BME280;64052;47.466;9.094;2023-02-11T06:46:51;97577.78;;;1.30;51.43
46456;BME280;64052;47.466;9.094;2023-02-11T06:51:52;97565.34;;;1.45;51.25
46456;BME280;64052;47.466;9.094;2023-02-11T06:56:54;97557.22;;;1.60;50.76
46456;BME280;64052;47.466;9.094;2023-02-11T07:01:55;97551.38;;;1.49;50.33
46456;BME280;64052;47.466;9.094;2023-02-11T07:06:57;97539.34;;;1.45;50.13
46456;BME280;64052;47.466;9.094;2023-02-11T07:11:59;97535.97;;;1.79;50.03
46456;BME280;64052;47.466;9.094;2023-02-11T07:17:00;97528.84;;;1.89;49.65
46456;BME280;64052;47.466;9.094;2023-02-11T07:22:02;97514.19;;;1.85;49.68
46456;BME280;64052;47.466;9.094;2023-02-11T07:27:03;97499.56;;;1.79;50.07
46456;BME280;64052;47.466;9.094;2023-02-11T07:32:05;97499.34;;;1.90;49.94
46456;BME280;64052;47.466;9.094;2023-02-11T07:37:07;97502.25;;;2.14;49.03
46456;BME280;64052;47.466;9.094;2023-02-11T07:42:09;97498.41;;;2.29;48.54
46456;BME280;64052;47.466;9.094;2023-02-11T07:47:11;97509.13;;;2.51;48.32
46456;BME280;64052;47.466;9.094;2023-02-11T07:52:12;97494.41;;;2.50;47.82
46456;BME280;64052;47.466;9.094;2023-02-11T07:57:14;97496.69;;;2.94;46.93
46456;BME280;64052;47.466;9.094;2023-02-11T08:02:15;97500.34;;;3.18;46.69
46456;BME280;64052;47.466;9.094;2023-02-11T08:07:17;97483.00;;;3.47;46.19
46456;BME280;64052;47.466;9.094;2023-02-11T08:12:19;97477.47;;;3.57;46.31
46456;BME280;64052;47.466;9.094;2023-02-11T08:17:20;97476.22;;;3.42;46.25
46456;BME280;64052;47.466;9.094;2023-02-11T08:22:22;97501.00;;;3.55;45.86
46456;BME280;64052;47.466;9.094;2023-02-11T08:27:24;97507.19;;;3.81;45.61
46456;BME280;64052;47.466;9.094;2023-02-11T08:32:26;97515.16;;;4.03;46.35
46456;BME280;64052;47.466;9.094;2023-02-11T08:37:28;97512.88;;;4.21;44.78
46456;BME280;64052;47.466;9.094;2023-02-11T08:42:33;97533.03;;;4.43;44.37
46456;BME280;64052;47.466;9.094;2023-02-11T08:47:35;97532.47;;;4.60;47.06
46456;BME280;64052;47.466;9.094;2023-02-11T08:52:36;97539.59;;;4.82;47.28
46456;BME280;64052;47.466;9.094;2023-02-11T08:57:38;97563.38;;;4.74;47.25
46456;BME280;64052;47.466;9.094;2023-02-11T09:02:39;97565.56;;;4.86;47.20
46456;BME280;64052;47.466;9.094;2023-02-11T09:07:41;97568.81;;;4.93;46.85
46456;BME280;64052;47.466;9.094;2023-02-11T09:12:42;97558.97;;;5.01;46.71
46456;BME280;64052;47.466;9.094;2023-02-11T09:17:43;97547.03;;;5.18;46.67
46456;BME280;64052;47.466;9.094;2023-02-11T09:22:45;97540.78;;;5.22;46.05
46456;BME280;64052;47.466;9.094;2023-02-11T09:27:47;97551.06;;;5.27;44.61
46456;BME280;64052;47.466;9.094;2023-02-11T09:32:48;97536.88;;;5.34;44.31
46456;BME280;64052;47.466;9.094;2023-02-11T09:37:50;97527.53;;;5.51;44.17
46456;BME280;64052;47.466;9.094;2023-02-11T09:43:11;97535.38;;;5.74;44.49
46456;BME280;64052;47.466;9.094;2023-02-11T09:48:16;97529.47;;;5.91;44.31
46456;BME280;64052;47.466;9.094;2023-02-11T09:53:27;97527.88;;;6.11;43.91
46456;BME280;64052;47.466;9.094;2023-02-11T09:58:34;97530.97;;;6.42;43.08
46456;BME280;64052;47.466;9.094;2023-02-11T10:03:38;97524.81;;;6.22;43.67
46456;BME280;64052;47.466;9.094;2023-02-11T10:14:18;97544.72;;;6.04;45.71
46456;BME280;64052;47.466;9.094;2023-02-11T10:19:33;97526.66;;;6.20;45.07
46456;BME280;64052;47.466;9.094;2023-02-11T10:24:40;97523.88;;;6.23;46.13
46456;BME280;64052;47.466;9.094;2023-02-11T10:29:48;97523.44;;;6.34;45.58
46456;BME280;64052;47.466;9.094;2023-02-11T10:34:51;97526.28;;;6.50;44.72
46456;BME280;64052;47.466;9.094;2023-02-11T10:39:55;97516.84;;;6.87;44.27
46456;BME280;64052;47.466;9.094;2023-02-11T10:45:01;97516.66;;;7.32;43.08
46456;BME280;64052;47.466;9.094;2023-02-11T10:50:27;97512.56;;;8.01;40.81
46456;BME280;64052;47.466;9.094;2023-02-11T10:55:29;97495.50;;;8.82;39.77
46456;BME280;64052;47.466;9.094;2023-02-11T11:00:37;97486.84;;;9.80;38.11
46456;BME280;64052;47.466;9.094;2023-02-11T11:06:00;97488.56;;;10.89;35.62
46456;BME280;64052;47.466;9.094;2023-02-11T11:11:05;97475.78;;;11.95;33.72
46456;BME280;64052;47.466;9.094;2023-02-11T11:21:44;97463.34;;;12.65;32.81
46456;BME280;64052;47.466;9.094;2023-02-11T11:26:54;97466.50;;;12.84;32.25
46456;BME280;64052;47.466;9.094;2023-02-11T11:32:01;97457.97;;;13.94;31.11
46456;BME280;64052;47.466;9.094;2023-02-11T11:37:22;97448.84;;;16.18;26.81
46456;BME280;64052;47.466;9.094;2023-02-11T11:47:57;97439.25;;;19.58;22.63
46456;BME280;64052;47.466;9.094;2023-02-11T11:53:04;97431.44;;;20.83;21.00
46456;BME280;64052;47.466;9.094;2023-02-11T11:58:10;97431.88;;;20.78;20.38
46456;BME280;64052;47.466;9.094;2023-02-11T12:19:42;97418.91;;;21.53;17.94
46456;BME280;64052;47.466;9.094;2023-02-11T12:35:57;97412.97;;;23.34;16.60
46456;BME280;64052;47.466;9.094;2023-02-11T12:56:42;97386.00;;;23.82;16.29
46456;BME280;64052;47.466;9.094;2023-02-11T13:01:47;97393.13;;;22.62;17.88
46456;BME280;64052;47.466;9.094;2023-02-11T13:07:01;97391.44;;;22.52;18.14
46456;BME280;64052;47.466;9.094;2023-02-11T13:12:05;97388.84;;;23.00;17.89
46456;BME280;64052;47.466;9.094;2023-02-11T13:17:16;97391.06;;;22.30;18.70
46456;BME280;64052;47.466;9.094;2023-02-11T13:27:40;97381.53;;;22.61;17.38
46456;BME280;64052;47.466;9.094;2023-02-11T13:37:55;97358.66;;;21.82;17.24
46456;BME280;64052;47.466;9.094;2023-02-11T13:43:00;97361.59;;;21.19;19.07
46456;BME280;64052;47.466;9.094;2023-02-11T13:48:05;97356.19;;;20.50;20.13
46456;BME280;64052;47.466;9.094;2023-02-11T13:53:07;97363.81;;;20.45;19.76
46456;BME280;64052;47.466;9.094;2023-02-11T13:58:16;97355.22;;;19.50;21.54
46456;BME280;64052;47.466;9.094;2023-02-11T14:08:21;97348.16;;;18.65;23.03
46456;BME280;64052;47.466;9.094;2023-02-11T14:13:24;97352.31;;;18.30;22.84
46456;BME280;64052;47.466;9.094;2023-02-11T14:23:48;97344.53;;;17.07;25.06
46456;BME280;64052;47.466;9.094;2023-02-11T14:28:57;97349.56;;;17.00;25.03
46456;BME280;64052;47.466;9.094;2023-02-11T14:39:55;97352.41;;;16.56;25.71
46456;BME280;64052;47.466;9.094;2023-02-11T14:45:04;97338.41;;;16.54;25.87
46456;BME280;64052;47.466;9.094;2023-02-11T14:50:23;97336.13;;;16.50;25.73
46456;BME280;64052;47.466;9.094;2023-02-11T14:55:31;97345.13;;;16.06;26.26
46456;BME280;64052;47.466;9.094;2023-02-11T15:00:33;97348.31;;;15.77;26.31
46456;BME280;64052;47.466;9.094;2023-02-11T15:05:35;97350.28;;;15.31;26.68
46456;BME280;64052;47.466;9.094;2023-02-11T15:10:41;97345.13;;;14.84;27.57
46456;BME280;64052;47.466;9.094;2023-02-11T15:15:43;97352.91;;;14.62;27.89
46456;BME280;64052;47.466;9.094;2023-02-11T15:20:46;97347.47;;;14.41;28.40
46456;BME280;64052;47.466;9.094;2023-02-11T15:25:47;97354.88;;;14.13;28.71
46456;BME280;64052;47.466;9.094;2023-02-11T15:31:01;97358.25;;;14.15;28.96
46456;BME280;64052;47.466;9.094;2023-02-11T15:36:03;97348.44;;;13.93;28.42
46456;BME280;64052;47.466;9.094;2023-02-11T15:41:06;97357.50;;;14.02;28.34
46456;BME280;64052;47.466;9.094;2023-02-11T15:46:10;97355.22;;;14.09;29.18
46456;BME280;64052;47.466;9.094;2023-02-11T15:51:21;97355.53;;;13.93;28.79
46456;BME280;64052;47.466;9.094;2023-02-11T15:56:40;97354.59;;;13.69;29.01
46456;BME280;64052;47.466;9.094;2023-02-11T16:01:43;97353.88;;;13.67;29.17
46456;BME280;64052;47.466;9.094;2023-02-11T16:06:45;97369.94;;;13.02;32.90
46456;BME280;64052;47.466;9.094;2023-02-11T16:16:50;97358.84;;;12.45;35.10
46456;BME280;64052;47.466;9.094;2023-02-11T16:21:56;97377.81;;;12.39;34.42
46456;BME280;64052;47.466;9.094;2023-02-11T16:27:00;97371.09;;;11.80;34.81
46456;BME280;64052;47.466;9.094;2023-02-11T16:32:20;97378.41;;;11.62;36.44
46456;BME280;64052;47.466;9.094;2023-02-11T16:37:23;97377.22;;;11.53;36.18
46456;BME280;64052;47.466;9.094;2023-02-11T16:42:25;97377.31;;;11.09;36.81
46456;BME280;64052;47.466;9.094;2023-02-11T16:47:27;97367.50;;;11.26;36.54
46456;BME280;64052;47.466;9.094;2023-02-11T16:52:29;97371.50;;;10.90;37.18
46456;BME280;64052;47.466;9.094;2023-02-11T16:57:30;97371.69;;;10.58;37.36
46456;BME280;64052;47.466;9.094;2023-02-11T17:02:33;97372.34;;;10.61;37.44
46456;BME280;64052;47.466;9.094;2023-02-11T17:07:36;97376.41;;;10.22;37.81
46456;BME280;64052;47.466;9.094;2023-02-11T17:12:37;97397.78;;;9.70;39.87
46456;BME280;64052;47.466;9.094;2023-02-11T17:17:39;97393.47;;;9.53;40.03
46456;BME280;64052;47.466;9.094;2023-02-11T17:22:40;97404.19;;;9.34;40.75
46456;BME280;64052;47.466;9.094;2023-02-11T17:27:42;97408.56;;;9.02;40.73
46456;BME280;64052;47.466;9.094;2023-02-11T17:32:44;97417.44;;;9.17;40.75
46456;BME280;64052;47.466;9.094;2023-02-11T17:37:46;97425.47;;;9.13;41.29
46456;BME280;64052;47.466;9.094;2023-02-11T17:42:47;97438.72;;;9.12;41.27
46456;BME280;64052;47.466;9.094;2023-02-11T17:47:50;97443.00;;;8.97;41.14
46456;BME280;64052;47.466;9.094;2023-02-11T17:52:51;97443.88;;;8.97;41.05
46456;BME280;64052;47.466;9.094;2023-02-11T17:57:53;97445.56;;;8.65;41.76
46456;BME280;64052;47.466;9.094;2023-02-11T18:02:55;97447.72;;;8.56;42.16
46456;BME280;64052;47.466;9.094;2023-02-11T18:07:58;97438.31;;;8.52;42.57
46456;BME280;64052;47.466;9.094;2023-02-11T18:13:00;97439.81;;;8.21;42.77
46456;BME280;64052;47.466;9.094;2023-02-11T18:18:01;97452.31;;;7.98;43.49
46456;BME280;64052;47.466;9.094;2023-02-11T18:23:03;97456.41;;;7.86;43.02
46456;BME280;64052;47.466;9.094;2023-02-11T18:28:05;97452.38;;;7.60;43.51
46456;BME280;64052;47.466;9.094;2023-02-11T18:33:06;97464.44;;;7.45;44.13
46456;BME280;64052;47.466;9.094;2023-02-11T18:38:08;97468.66;;;7.30;44.65
46456;BME280;64052;47.466;9.094;2023-02-11T18:43:10;97466.81;;;7.32;44.27
46456;BME280;64052;47.466;9.094;2023-02-11T18:48:12;97473.81;;;7.51;44.13
46456;BME280;64052;47.466;9.094;2023-02-11T18:53:14;97478.03;;;7.36;44.37
46456;BME280;64052;47.466;9.094;2023-02-11T18:58:15;97492.16;;;7.12;45.08
46456;BME280;64052;47.466;9.094;2023-02-11T19:03:17;97491.53;;;7.07;45.83
46456;BME280;64052;47.466;9.094;2023-02-11T19:08:18;97502.16;;;7.04;45.93
46456;BME280;64052;47.466;9.094;2023-02-11T19:13:20;97512.66;;;7.04;44.70
46456;BME280;64052;47.466;9.094;2023-02-11T19:18:21;97517.00;;;6.84;45.69
46456;BME280;64052;47.466;9.094;2023-02-11T19:23:23;97522.13;;;6.67;45.39
46456;BME280;64052;47.466;9.094;2023-02-11T19:28:25;97525.22;;;6.54;46.44
46456;BME280;64052;47.466;9.094;2023-02-11T19:33:26;97531.94;;;6.61;46.22
46456;BME280;64052;47.466;9.094;2023-02-11T19:38:28;97530.59;;;6.30;46.90
46456;BME280;64052;47.466;9.094;2023-02-11T19:43:29;97538.13;;;6.16;47.25
46456;BME280;64052;47.466;9.094;2023-02-11T19:48:31;97536.25;;;6.19;47.35
46456;BME280;64052;47.466;9.094;2023-02-11T19:53:33;97523.09;;;6.21;47.10
46456;BME280;64052;47.466;9.094;2023-02-11T19:58:34;97519.88;;;6.14;47.54
46456;BME280;64052;47.466;9.094;2023-02-11T20:03:36;97523.00;;;6.02;47.78
46456;BME280;64052;47.466;9.094;2023-02-11T20:08:42;97526.59;;;5.98;47.93
46456;BME280;64052;47.466;9.094;2023-02-11T20:13:44;97525.06;;;5.92;48.14
46456;BME280;64052;47.466;9.094;2023-02-11T20:18:46;97526.56;;;5.77;47.86
46456;BME280;64052;47.466;9.094;2023-02-11T20:23:48;97531.25;;;5.67;47.99
46456;BME280;64052;47.466;9.094;2023-02-11T20:28:52;97529.56;;;5.66;48.18
46456;BME280;64052;47.466;9.094;2023-02-11T20:33:54;97529.16;;;5.77;48.20
46456;BME280;64052;47.466;9.094;2023-02-11T20:38:55;97524.22;;;5.69;47.66
46456;BME280;64052;47.466;9.094;2023-02-11T20:43:59;97514.06;;;5.84;48.08
46456;BME280;64052;47.466;9.094;2023-02-11T20:49:02;97506.69;;;5.71;48.56
46456;BME280;64052;47.466;9.094;2023-02-11T20:54:04;97506.69;;;5.71;48.25
46456;BME280;64052;47.466;9.094;2023-02-11T20:59:06;97516.38;;;5.69;48.42
46456;BME280;64052;47.466;9.094;2023-02-11T21:04:17;97513.28;;;5.82;49.06
46456;BME280;64052;47.466;9.094;2023-02-11T21:09:21;97509.44;;;5.68;48.36
46456;BME280;64052;47.466;9.094;2023-02-11T21:14:25;97513.91;;;5.88;48.74
46456;BME280;64052;47.466;9.094;2023-02-11T21:19:26;97499.88;;;5.89;48.16
46456;BME280;64052;47.466;9.094;2023-02-11T21:24:28;97502.59;;;5.86;47.86
46456;BME280;64052;47.466;9.094;2023-02-11T21:29:29;97503.78;;;5.79;48.93
46456;BME280;64052;47.466;9.094;2023-02-11T21:34:31;97504.91;;;5.72;48.98
46456;BME280;64052;47.466;9.094;2023-02-11T21:39:33;97513.69;;;5.71;49.07
46456;BME280;64052;47.466;9.094;2023-02-11T21:44:34;97514.25;;;5.79;48.80
46456;BME280;64052;47.466;9.094;2023-02-11T21:49:36;97519.44;;;5.81;48.55
46456;BME280;64052;47.466;9.094;2023-02-11T21:54:37;97522.84;;;5.83;48.40
46456;BME280;64052;47.466;9.094;2023-02-11T21:59:39;97525.38;;;5.62;48.81
46456;BME280;64052;47.466;9.094;2023-02-11T22:04:40;97523.16;;;5.51;49.12
46456;BME280;64052;47.466;9.094;2023-02-11T22:09:43;97516.28;;;5.25;48.11
46456;BME280;64052;47.466;9.094;2023-02-11T22:14:45;97517.31;;;5.20;48.54
46456;BME280;64052;47.466;9.094;2023-02-11T22:19:46;97519.00;;;4.98;49.75
46456;BME280;64052;47.466;9.094;2023-02-11T22:24:48;97521.50;;;5.01;50.33
46456;BME280;64052;47.466;9.094;2023-02-11T22:29:49;97535.03;;;5.12;49.72
46456;BME280;64052;47.466;9.094;2023-02-11T22:34:51;97539.63;;;5.05;49.37
46456;BME280;64052;47.466;9.094;2023-02-11T22:39:53;97536.69;;;4.89;49.48
46456;BME280;64052;47.466;9.094;2023-02-11T22:44:55;97545.25;;;4.95;49.86
46456;BME280;64052;47.466;9.094;2023-02-11T22:49:56;97552.50;;;4.86;50.17
46456;BME280;64052;47.466;9.094;2023-02-11T22:54:58;97546.63;;;4.80;50.21
46456;BME280;64052;47.466;9.094;2023-02-11T22:59:59;97542.16;;;4.83;50.28
46456;BME280;64052;47.466;9.094;2023-02-11T23:05:01;97540.66;;;4.76;50.32
46456;BME280;64052;47.466;9.094;2023-02-11T23:10:03;97551.97;;;4.49;50.60
46456;BME280;64052;47.466;9.094;2023-02-11T23:15:05;97558.97;;;4.49;50.20
46456;BME280;64052;47.466;9.094;2023-02-11T23:20:06;97550.75;;;4.07;49.97
46456;BME280;64052;47.466;9.094;2023-02-11T23:25:08;97565.28;;;3.86;51.12
46456;BME280;64052;47.466;9.094;2023-02-11T23:30:10;97555.13;;;4.05;51.49
46456;BME280;64052;47.466;9.094;2023-02-11T23:35:12;97554.31;;;4.03;51.43
46456;BME280;64052;47.466;9.094;2023-02-11T23:40:13;97558.22;;;3.90;52.02
46456;BME280;64052;47.466;9.094;2023-02-11T23:45:15;97548.47;;;3.95;51.07
46456;BME280;64052;47.466;9.094;2023-02-11T23:50:17;97560.69;;;3.94;51.16
46456;BME280;64052;47.466;9.094;2023-02-11T23:55:18;97557.88;;;4.01;52.06
